sensor_id;sensor_type;location;lat;lon;timestamp;temperature;humidity
2873;DHT22;1444;49.166;7.312;2024-01-25T00:00:17;11.00;99.90
2873;DHT22;1444;49.166;7.312;2024-01-25T00:02:44;11.00;99.90
2873;DHT22;1444;49.166;7.312;2024-01-25T00:05:13;11.00;99.90
2873;DHT22;1444;49.166;7.312;2024-01-25T00:07:46;11.00;99.90
2873;DHT22;1444;49.166;7.312;2024-01-25T00:12:41;10.90;99.90
2873;DHT22;1444;49.166;7.312;2024-01-25T00:15:09;10.90;99.90
2873;DHT22;1444;49.166;7.312;2024-01-25T00:17:36;10.90;99.90
2873;DHT22;1444;49.166;7.312;2024-01-25T00:20:04;10.90;99.90
2873;DHT22;1444;49.166;7.312;2024-01-25T00:22:33;10.90;99.90
2873;DHT22;1444;49.166;7.312;2024-01-25T00:25:00;11.00;99.90
2873;DHT22;1444;49.166;7.312;2024-01-25T00:27:28;11.00;99.90
2873;DHT22;1444;49.166;7.312;2024-01-25T00:29:55;11.00;99.90
2873;DHT22;1444;49.166;7.312;2024-01-25T00:32:22;10.90;99.90
2873;DHT22;1444;49.166;7.312;2024-01-25T00:34:49;10.80;99.90
2873;DHT22;1444;49.166;7.312;2024-01-25T00:39:45;10.90;99.90
2873;DHT22;1444;49.166;7.312;2024-01-25T00:42:13;10.80;99.90
2873;DHT22;1444;49.166;7.312;2024-01-25T00:44:41;10.90;99.90
2873;DHT22;1444;49.166;7.312;2024-01-25T00:47:09;10.90;99.90
2873;DHT22;1444;49.166;7.312;2024-01-25T00:49:36;10.90;99.90
2873;DHT22;1444;49.166;7.312;2024-01-25T00:52:04;10.90;99.90
2873;DHT22;1444;49.166;7.312;2024-01-25T00:54:32;10.90;99.90
2873;DHT22;1444;49.166;7.312;2024-01-25T00:57:00;10.90;99.90
2873;DHT22;1444;49.166;7.312;2024-01-25T00:59:28;10.90;99.90
2873;DHT22;1444;49.166;7.312;2024-01-25T01:01:55;11.00;99.90
2873;DHT22;1444;49.166;7.312;2024-01-25T01:04:24;10.90;99.90
2873;DHT22;1444;49.166;7.312;2024-01-25T01:06:51;10.90;99.90
2873;DHT22;1444;49.166;7.312;2024-01-25T01:09:18;10.90;99.90
2873;DHT22;1444;49.166;7.312;2024-01-25T01:11:45;10.90;99.90
2873;DHT22;1444;49.166;7.312;2024-01-25T01:14:15;10.90;99.90
2873;DHT22;1444;49.166;7.312;2024-01-25T01:16:42;10.90;99.90
2873;DHT22;1444;49.166;7.312;2024-01-25T01:19:09;11.00;99.90
2873;DHT22;1444;49.166;7.312;2024-01-25T01:21:36;11.00;99.90
2873;DHT22;1444;49.166;7.312;2024-01-25T01:24:04;11.00;99.90
2873;DHT22;1444;49.166;7.312;2024-01-25T01:26:31;11.00;99.90
2873;DHT22;1444;49.166;7.312;2024-01-25T01:29:00;11.00;99.90
2873;DHT22;1444;49.166;7.312;2024-01-25T01:31:28;11.00;99.90
2873;DHT22;1444;49.166;7.312;2024-01-25T01:33:55;11.00;99.90
2873;DHT22;1444;49.166;7.312;2024-01-25T01:36:24;11.10;99.90
2873;DHT22;1444;49.166;7.312;2024-01-25T01:38:51;11.10;99.90
2873;DHT22;1444;49.166;7.312;2024-01-25T01:41:18;11.00;99.90
2873;DHT22;1444;49.166;7.312;2024-01-25T01:43:45;11.00;99.90
2873;DHT22;1444;49.166;7.312;2024-01-25T01:46:20;11.00;99.90
2873;DHT22;1444;49.166;7.312;2024-01-25T01:48:48;11.00;99.90
2873;DHT22;1444;49.166;7.312;2024-01-25T01:51:15;11.00;99.90
2873;DHT22;1444;49.166;7.312;2024-01-25T01:53:43;11.00;99.90
2873;DHT22;1444;49.166;7.312;2024-01-25T01:56:10;11.00;99.90
2873;DHT22;1444;49.166;7.312;2024-01-25T01:58:38;11.00;99.90
2873;DHT22;1444;49.166;7.312;2024-01-25T02:01:05;11.10;99.90
2873;DHT22;1444;49.166;7.312;2024-01-25T02:03:32;11.00;99.90
2873;DHT22;1444;49.166;7.312;2024-01-25T02:06:02;10.90;99.90
2873;DHT22;1444;49.166;7.312;2024-01-25T02:08:29;10.90;99.90
2873;DHT22;1444;49.166;7.312;2024-01-25T02:10:56;11.00;99.90
2873;DHT22;1444;49.166;7.312;2024-01-25T02:13:22;10.90;99.90
2873;DHT22;1444;49.166;7.312;2024-01-25T02:15:52;10.90;99.90
2873;DHT22;1444;49.166;7.312;2024-01-25T02:18:19;11.00;99.90
2873;DHT22;1444;49.166;7.312;2024-01-25T02:20:46;11.00;99.90
2873;DHT22;1444;49.166;7.312;2024-01-25T02:23:14;11.10;99.90
2873;DHT22;1444;49.166;7.312;2024-01-25T02:25:41;11.10;99.90
2873;DHT22;1444;49.166;7.312;2024-01-25T02:28:08;11.10;99.90
2873;DHT22;1444;49.166;7.312;2024-01-25T02:30:34;11.10;99.90
2873;DHT22;1444;49.166;7.312;2024-01-25T02:33:01;11.10;99.90
2873;DHT22;1444;49.166;7.312;2024-01-25T02:35:28;11.10;99.90
2873;DHT22;1444;49.166;7.312;2024-01-25T02:37:55;11.10;99.90
2873;DHT22;1444;49.166;7.312;2024-01-25T02:40:23;11.10;99.90
2873;DHT22;1444;49.166;7.312;2024-01-25T02:42:50;11.10;99.90
2873;DHT22;1444;49.166;7.312;2024-01-25T02:45:17;11.10;99.90
2873;DHT22;1444;49.166;7.312;2024-01-25T02:47:44;11.00;99.90
2873;DHT22;1444;49.166;7.312;2024-01-25T02:50:11;11.00;99.90
2873;DHT22;1444;49.166;7.312;2024-01-25T02:52:38;11.00;99.90
2873;DHT22;1444;49.166;7.312;2024-01-25T02:55:05;11.10;99.90
2873;DHT22;1444;49.166;7.312;2024-01-25T02:57:34;11.10;99.90
2873;DHT22;1444;49.166;7.312;2024-01-25T03:00:01;11.10;99.90
2873;DHT22;1444;49.166;7.312;2024-01-25T03:02:28;11.10;99.90
2873;DHT22;1444;49.166;7.312;2024-01-25T03:04:55;11.10;99.90
2873;DHT22;1444;49.166;7.312;2024-01-25T03:07:22;11.10;99.90
2873;DHT22;1444;49.166;7.312;2024-01-25T03:09:49;11.10;99.90
2873;DHT22;1444;49.166;7.312;2024-01-25T03:12:16;11.00;99.90
2873;DHT22;1444;49.166;7.312;2024-01-25T03:17:11;11.00;99.90
2873;DHT22;1444;49.166;7.312;2024-01-25T03:19:38;11.10;99.90
2873;DHT22;1444;49.166;7.312;2024-01-25T03:22:05;11.00;99.90
2873;DHT22;1444;49.166;7.312;2024-01-25T03:24:32;11.10;99.90
2873;DHT22;1444;49.166;7.312;2024-01-25T03:26:59;11.10;99.90
2873;DHT22;1444;49.166;7.312;2024-01-25T03:29:26;11.00;99.90
2873;DHT22;1444;49.166;7.312;2024-01-25T03:31:54;11.00;99.90
2873;DHT22;1444;49.166;7.312;2024-01-25T03:34:21;11.00;99.90
2873;DHT22;1444;49.166;7.312;2024-01-25T03:36:48;11.00;99.90
2873;DHT22;1444;49.166;7.312;2024-01-25T03:39:15;11.10;99.90
2873;DHT22;1444;49.166;7.312;2024-01-25T03:41:43;11.10;99.90
2873;DHT22;1444;49.166;7.312;2024-01-25T03:44:09;11.10;99.90
2873;DHT22;1444;49.166;7.312;2024-01-25T03:46:36;11.10;99.90
2873;DHT22;1444;49.166;7.312;2024-01-25T03:51:32;11.10;99.90
2873;DHT22;1444;49.166;7.312;2024-01-25T03:53:57;11.10;99.90
2873;DHT22;1444;49.166;7.312;2024-01-25T03:56:24;11.00;99.90
2873;DHT22;1444;49.166;7.312;2024-01-25T03:58:52;11.00;99.90
2873;DHT22;1444;49.166;7.312;2024-01-25T04:01:19;11.00;99.90
2873;DHT22;1444;49.166;7.312;2024-01-25T04:06:14;11.00;99.90
2873;DHT22;1444;49.166;7.312;2024-01-25T04:08:41;10.90;99.90
2873;DHT22;1444;49.166;7.312;2024-01-25T04:13:36;10.90;99.90
2873;DHT22;1444;49.166;7.312;2024-01-25T04:16:03;10.90;99.90
2873;DHT22;1444;49.166;7.312;2024-01-25T04:18:30;10.90;99.90
2873;DHT22;1444;49.166;7.312;2024-01-25T04:20:57;10.80;99.90
2873;DHT22;1444;49.166;7.312;2024-01-25T04:25:52;10.80;99.90
2873;DHT22;1444;49.166;7.312;2024-01-25T04:28:21;10.80;99.90
2873;DHT22;1444;49.166;7.312;2024-01-25T04:30:50;10.80;99.90
2873;DHT22;1444;49.166;7.312;2024-01-25T04:33:17;10.80;99.90
2873;DHT22;1444;49.166;7.312;2024-01-25T04:35:44;10.80;99.90
2873;DHT22;1444;49.166;7.312;2024-01-25T04:38:11;10.70;99.90
2873;DHT22;1444;49.166;7.312;2024-01-25T04:40:39;10.70;99.90
2873;DHT22;1444;49.166;7.312;2024-01-25T04:43:06;10.70;99.90
2873;DHT22;1444;49.166;7.312;2024-01-25T04:45:32;10.50;99.90
2873;DHT22;1444;49.166;7.312;2024-01-25T04:47:59;10.40;99.90
2873;DHT22;1444;49.166;7.312;2024-01-25T04:50:26;10.20;99.90
2873;DHT22;1444;49.166;7.312;2024-01-25T04:52:53;10.10;99.90
2873;DHT22;1444;49.166;7.312;2024-01-25T04:55:20;10.10;99.90
2873;DHT22;1444;49.166;7.312;2024-01-25T04:57:49;10.00;99.90
2873;DHT22;1444;49.166;7.312;2024-01-25T05:00:19;9.90;99.90
2873;DHT22;1444;49.166;7.312;2024-01-25T05:02:50;9.90;99.90
2873;DHT22;1444;49.166;7.312;2024-01-25T05:05:17;9.80;99.90
2873;DHT22;1444;49.166;7.312;2024-01-25T05:07:44;9.70;99.90
2873;DHT22;1444;49.166;7.312;2024-01-25T05:10:11;9.50;99.90
2873;DHT22;1444;49.166;7.312;2024-01-25T05:12:38;9.50;99.90
2873;DHT22;1444;49.166;7.312;2024-01-25T05:15:07;9.60;99.90
2873;DHT22;1444;49.166;7.312;2024-01-25T05:17:34;9.60;99.90
2873;DHT22;1444;49.166;7.312;2024-01-25T05:20:01;9.60;99.90
2873;DHT22;1444;49.166;7.312;2024-01-25T05:22:28;9.50;99.90
2873;DHT22;1444;49.166;7.312;2024-01-25T05:24:55;9.50;99.90
2873;DHT22;1444;49.166;7.312;2024-01-25T05:27:22;9.50;99.90
2873;DHT22;1444;49.166;7.312;2024-01-25T05:29:49;9.50;99.90
2873;DHT22;1444;49.166;7.312;2024-01-25T05:32:17;9.60;99.90
2873;DHT22;1444;49.166;7.312;2024-01-25T05:34:44;9.50;99.90
2873;DHT22;1444;49.166;7.312;2024-01-25T05:37:11;9.30;99.90
2873;DHT22;1444;49.166;7.312;2024-01-25T05:39:38;9.30;99.90
2873;DHT22;1444;49.166;7.312;2024-01-25T05:42:05;9.30;99.90
2873;DHT22;1444;49.166;7.312;2024-01-25T05:44:32;9.30;99.90
2873;DHT22;1444;49.166;7.312;2024-01-25T05:46:58;9.30;99.90
2873;DHT22;1444;49.166;7.312;2024-01-25T05:49:27;9.30;99.90
2873;DHT22;1444;49.166;7.312;2024-01-25T05:51:54;9.20;99.90
2873;DHT22;1444;49.166;7.312;2024-01-25T05:54:21;9.10;99.90
2873;DHT22;1444;49.166;7.312;2024-01-25T05:56:47;8.90;99.90
2873;DHT22;1444;49.166;7.312;2024-01-25T05:59:14;8.80;99.90
2873;DHT22;1444;49.166;7.312;2024-01-25T06:01:41;8.80;99.90
2873;DHT22;1444;49.166;7.312;2024-01-25T06:04:08;8.60;99.90
2873;DHT22;1444;49.166;7.312;2024-01-25T06:06:36;8.50;99.90
2873;DHT22;1444;49.166;7.312;2024-01-25T06:09:04;8.00;99.90
2873;DHT22;1444;49.166;7.312;2024-01-25T06:14:01;7.90;99.90
2873;DHT22;1444;49.166;7.312;2024-01-25T06:16:27;7.80;99.90
2873;DHT22;1444;49.166;7.312;2024-01-25T06:18:54;7.90;99.90
2873;DHT22;1444;49.166;7.312;2024-01-25T06:21:21;8.00;99.90
2873;DHT22;1444;49.166;7.312;2024-01-25T06:23:49;8.00;99.90
2873;DHT22;1444;49.166;7.312;2024-01-25T06:26:16;8.00;99.90
2873;DHT22;1444;49.166;7.312;2024-01-25T06:28:43;7.90;99.90
2873;DHT22;1444;49.166;7.312;2024-01-25T06:31:11;7.80;99.90
2873;DHT22;1444;49.166;7.312;2024-01-25T06:33:38;7.70;99.90
2873;DHT22;1444;49.166;7.312;2024-01-25T06:36:05;7.60;99.90
2873;DHT22;1444;49.166;7.312;2024-01-25T06:38:32;7.50;99.90
2873;DHT22;1444;49.166;7.312;2024-01-25T06:41:00;7.40;99.90
2873;DHT22;1444;49.166;7.312;2024-01-25T06:43:27;7.30;99.90
2873;DHT22;1444;49.166;7.312;2024-01-25T06:45:55;7.30;99.90
2873;DHT22;1444;49.166;7.312;2024-01-25T06:48:22;7.20;99.90
2873;DHT22;1444;49.166;7.312;2024-01-25T06:50:49;7.20;99.90
2873;DHT22;1444;49.166;7.312;2024-01-25T06:53:16;7.10;99.90
2873;DHT22;1444;49.166;7.312;2024-01-25T06:55:43;6.90;99.90
2873;DHT22;1444;49.166;7.312;2024-01-25T06:58:11;6.90;99.90
2873;DHT22;1444;49.166;7.312;2024-01-25T07:00:38;6.80;99.90
2873;DHT22;1444;49.166;7.312;2024-01-25T07:03:08;6.80;99.90
2873;DHT22;1444;49.166;7.312;2024-01-25T07:05:35;6.80;99.90
2873;DHT22;1444;49.166;7.312;2024-01-25T07:08:02;6.90;99.90
2873;DHT22;1444;49.166;7.312;2024-01-25T07:10:29;6.90;99.90
2873;DHT22;1444;49.166;7.312;2024-01-25T07:12:57;6.80;99.90
2873;DHT22;1444;49.166;7.312;2024-01-25T07:15:25;6.80;99.90
2873;DHT22;1444;49.166;7.312;2024-01-25T07:17:52;6.60;99.90
2873;DHT22;1444;49.166;7.312;2024-01-25T07:20:19;6.50;99.90
2873;DHT22;1444;49.166;7.312;2024-01-25T07:22:46;6.40;99.90
2873;DHT22;1444;49.166;7.312;2024-01-25T07:25:13;6.40;99.90
2873;DHT22;1444;49.166;7.312;2024-01-25T07:27:39;6.40;99.90
2873;DHT22;1444;49.166;7.312;2024-01-25T07:30:11;6.30;99.90
2873;DHT22;1444;49.166;7.312;2024-01-25T07:32:39;6.20;99.90
2873;DHT22;1444;49.166;7.312;2024-01-25T07:35:08;6.20;99.90
2873;DHT22;1444;49.166;7.312;2024-01-25T07:37:35;6.10;99.90
2873;DHT22;1444;49.166;7.312;2024-01-25T07:40:02;6.00;99.90
2873;DHT22;1444;49.166;7.312;2024-01-25T07:42:30;6.00;99.90
2873;DHT22;1444;49.166;7.312;2024-01-25T07:44:57;5.70;99.90
2873;DHT22;1444;49.166;7.312;2024-01-25T07:47:24;5.50;99.90
2873;DHT22;1444;49.166;7.312;2024-01-25T07:49:52;5.30;99.90
2873;DHT22;1444;49.166;7.312;2024-01-25T07:52:19;5.10;99.90
2873;DHT22;1444;49.166;7.312;2024-01-25T07:57:14;5.20;99.90
2873;DHT22;1444;49.166;7.312;2024-01-25T07:59:41;5.30;99.90
2873;DHT22;1444;49.166;7.312;2024-01-25T08:02:07;5.60;99.90
2873;DHT22;1444;49.166;7.312;2024-01-25T08:04:38;5.80;99.90
2873;DHT22;1444;49.166;7.312;2024-01-25T08:07:06;6.00;99.90
2873;DHT22;1444;49.166;7.312;2024-01-25T08:09:34;6.20;99.90
2873;DHT22;1444;49.166;7.312;2024-01-25T08:12:01;6.60;99.90
2873;DHT22;1444;49.166;7.312;2024-01-25T08:14:28;6.90;99.90
2873;DHT22;1444;49.166;7.312;2024-01-25T08:16:55;7.20;99.90
2873;DHT22;1444;49.166;7.312;2024-01-25T08:19:22;8.20;99.90
2873;DHT22;1444;49.166;7.312;2024-01-25T08:21:49;8.70;99.90
2873;DHT22;1444;49.166;7.312;2024-01-25T08:24:17;9.00;99.90
2873;DHT22;1444;49.166;7.312;2024-01-25T08:26:44;9.90;99.90
2873;DHT22;1444;49.166;7.312;2024-01-25T08:29:11;10.20;99.90
2873;DHT22;1444;49.166;7.312;2024-01-25T08:31:38;11.00;99.90
2873;DHT22;1444;49.166;7.312;2024-01-25T08:34:05;11.20;99.90
2873;DHT22;1444;49.166;7.312;2024-01-25T08:36:32;11.20;99.90
2873;DHT22;1444;49.166;7.312;2024-01-25T08:38:58;11.20;99.90
2873;DHT22;1444;49.166;7.312;2024-01-25T08:41:27;11.70;99.90
2873;DHT22;1444;49.166;7.312;2024-01-25T08:43:54;11.70;99.90
2873;DHT22;1444;49.166;7.312;2024-01-25T08:46:21;11.00;99.90
2873;DHT22;1444;49.166;7.312;2024-01-25T08:48:48;10.60;99.90
2873;DHT22;1444;49.166;7.312;2024-01-25T08:51:14;10.50;99.90
2873;DHT22;1444;49.166;7.312;2024-01-25T08:53:41;10.80;99.90
2873;DHT22;1444;49.166;7.312;2024-01-25T08:56:08;10.70;99.90
2873;DHT22;1444;49.166;7.312;2024-01-25T08:58:36;10.60;99.90
2873;DHT22;1444;49.166;7.312;2024-01-25T09:01:04;10.50;99.90
2873;DHT22;1444;49.166;7.312;2024-01-25T09:03:30;10.50;99.90
2873;DHT22;1444;49.166;7.312;2024-01-25T09:05:57;10.40;99.90
2873;DHT22;1444;49.166;7.312;2024-01-25T09:08:31;10.40;99.90
2873;DHT22;1444;49.166;7.312;2024-01-25T09:10:58;10.40;99.90
2873;DHT22;1444;49.166;7.312;2024-01-25T09:13:25;10.50;99.90
2873;DHT22;1444;49.166;7.312;2024-01-25T09:15:53;10.70;99.90
2873;DHT22;1444;49.166;7.312;2024-01-25T09:18:20;10.70;99.90
2873;DHT22;1444;49.166;7.312;2024-01-25T09:20:47;10.60;99.90
2873;DHT22;1444;49.166;7.312;2024-01-25T09:23:15;10.60;99.90
2873;DHT22;1444;49.166;7.312;2024-01-25T09:25:42;10.60;99.90
2873;DHT22;1444;49.166;7.312;2024-01-25T09:28:10;10.60;99.90
2873;DHT22;1444;49.166;7.312;2024-01-25T09:30:38;10.60;99.90
2873;DHT22;1444;49.166;7.312;2024-01-25T09:33:07;10.70;99.90
2873;DHT22;1444;49.166;7.312;2024-01-25T09:35:34;11.00;99.90
2873;DHT22;1444;49.166;7.312;2024-01-25T09:38:01;11.00;99.90
2873;DHT22;1444;49.166;7.312;2024-01-25T09:40:27;11.20;99.90
2873;DHT22;1444;49.166;7.312;2024-01-25T09:42:55;11.30;99.90
2873;DHT22;1444;49.166;7.312;2024-01-25T09:45:24;11.30;99.90
2873;DHT22;1444;49.166;7.312;2024-01-25T09:47:51;11.40;99.90
2873;DHT22;1444;49.166;7.312;2024-01-25T09:50:19;11.40;99.90
2873;DHT22;1444;49.166;7.312;2024-01-25T09:52:53;11.40;99.90
2873;DHT22;1444;49.166;7.312;2024-01-25T09:55:22;11.30;99.90
2873;DHT22;1444;49.166;7.312;2024-01-25T09:57:53;11.30;99.90
2873;DHT22;1444;49.166;7.312;2024-01-25T10:00:21;11.30;99.90
2873;DHT22;1444;49.166;7.312;2024-01-25T10:02:48;11.20;99.90
2873;DHT22;1444;49.166;7.312;2024-01-25T10:05:20;11.30;99.90
2873;DHT22;1444;49.166;7.312;2024-01-25T10:07:47;11.20;99.90
2873;DHT22;1444;49.166;7.312;2024-01-25T10:10:14;11.20;99.90
2873;DHT22;1444;49.166;7.312;2024-01-25T10:12:42;11.20;99.90
2873;DHT22;1444;49.166;7.312;2024-01-25T10:15:09;11.30;99.90
2873;DHT22;1444;49.166;7.312;2024-01-25T10:17:36;11.30;99.90
2873;DHT22;1444;49.166;7.312;2024-01-25T10:20:05;11.40;99.90
2873;DHT22;1444;49.166;7.312;2024-01-25T10:22:38;11.60;99.90
2873;DHT22;1444;49.166;7.312;2024-01-25T10:25:12;11.60;99.90
2873;DHT22;1444;49.166;7.312;2024-01-25T10:27:39;11.70;99.90
2873;DHT22;1444;49.166;7.312;2024-01-25T10:30:07;11.70;99.90
2873;DHT22;1444;49.166;7.312;2024-01-25T10:32:35;11.60;99.90
2873;DHT22;1444;49.166;7.312;2024-01-25T10:35:02;11.60;99.90
2873;DHT22;1444;49.166;7.312;2024-01-25T10:37:31;11.40;99.90
2873;DHT22;1444;49.166;7.312;2024-01-25T10:39:59;11.40;99.90
2873;DHT22;1444;49.166;7.312;2024-01-25T10:44:54;11.50;99.90
2873;DHT22;1444;49.166;7.312;2024-01-25T10:47:21;11.60;99.90
2873;DHT22;1444;49.166;7.312;2024-01-25T10:49:49;11.80;99.90
2873;DHT22;1444;49.166;7.312;2024-01-25T10:52:16;11.80;99.90
2873;DHT22;1444;49.166;7.312;2024-01-25T10:54:45;11.70;99.90
2873;DHT22;1444;49.166;7.312;2024-01-25T10:57:13;11.80;99.90
2873;DHT22;1444;49.166;7.312;2024-01-25T10:59:40;11.90;99.90
2873;DHT22;1444;49.166;7.312;2024-01-25T11:02:07;12.00;99.90
2873;DHT22;1444;49.166;7.312;2024-01-25T11:04:35;12.30;99.90
2873;DHT22;1444;49.166;7.312;2024-01-25T11:07:07;12.30;99.90
2873;DHT22;1444;49.166;7.312;2024-01-25T11:09:35;12.40;99.90
2873;DHT22;1444;49.166;7.312;2024-01-25T11:12:12;12.50;99.90
2873;DHT22;1444;49.166;7.312;2024-01-25T11:14:40;12.40;99.90
2873;DHT22;1444;49.166;7.312;2024-01-25T11:17:18;12.40;99.90
2873;DHT22;1444;49.166;7.312;2024-01-25T11:19:46;12.20;99.90
2873;DHT22;1444;49.166;7.312;2024-01-25T11:22:14;12.10;99.90
2873;DHT22;1444;49.166;7.312;2024-01-25T11:24:41;12.20;99.90
2873;DHT22;1444;49.166;7.312;2024-01-25T11:27:09;12.10;99.90
2873;DHT22;1444;49.166;7.312;2024-01-25T11:29:38;12.00;99.90
2873;DHT22;1444;49.166;7.312;2024-01-25T11:32:06;11.90;99.90
2873;DHT22;1444;49.166;7.312;2024-01-25T11:34:33;11.90;99.90
2873;DHT22;1444;49.166;7.312;2024-01-25T11:37:00;11.90;99.90
2873;DHT22;1444;49.166;7.312;2024-01-25T11:39:27;11.80;99.90
2873;DHT22;1444;49.166;7.312;2024-01-25T11:41:54;11.80;99.90
2873;DHT22;1444;49.166;7.312;2024-01-25T11:44:21;11.90;99.90
2873;DHT22;1444;49.166;7.312;2024-01-25T11:46:53;12.00;99.90
2873;DHT22;1444;49.166;7.312;2024-01-25T11:49:23;12.10;99.90
2873;DHT22;1444;49.166;7.312;2024-01-25T11:54:18;12.10;99.90
2873;DHT22;1444;49.166;7.312;2024-01-25T11:56:45;12.10;99.90
2873;DHT22;1444;49.166;7.312;2024-01-25T12:01:40;12.10;99.90
2873;DHT22;1444;49.166;7.312;2024-01-25T12:04:09;12.10;99.90
2873;DHT22;1444;49.166;7.312;2024-01-25T12:06:36;12.10;99.90
2873;DHT22;1444;49.166;7.312;2024-01-25T12:09:07;12.10;99.90
2873;DHT22;1444;49.166;7.312;2024-01-25T12:11:34;12.00;99.90
2873;DHT22;1444;49.166;7.312;2024-01-25T12:14:01;12.00;99.90
2873;DHT22;1444;49.166;7.312;2024-01-25T12:16:29;12.00;99.90
2873;DHT22;1444;49.166;7.312;2024-01-25T12:18:55;12.00;99.90
2873;DHT22;1444;49.166;7.312;2024-01-25T12:21:24;12.10;99.90
2873;DHT22;1444;49.166;7.312;2024-01-25T12:23:51;12.10;99.90
2873;DHT22;1444;49.166;7.312;2024-01-25T12:26:18;12.10;99.90
2873;DHT22;1444;49.166;7.312;2024-01-25T12:28:46;12.10;99.90
2873;DHT22;1444;49.166;7.312;2024-01-25T12:33:42;11.90;99.90
2873;DHT22;1444;49.166;7.312;2024-01-25T12:36:09;11.80;99.90
2873;DHT22;1444;49.166;7.312;2024-01-25T12:38:37;11.80;99.90
2873;DHT22;1444;49.166;7.312;2024-01-25T12:41:05;11.60;99.90
2873;DHT22;1444;49.166;7.312;2024-01-25T12:43:31;11.50;99.90
2873;DHT22;1444;49.166;7.312;2024-01-25T12:48:26;11.30;99.90
2873;DHT22;1444;49.166;7.312;2024-01-25T12:50:53;11.10;99.90
2873;DHT22;1444;49.166;7.312;2024-01-25T12:53:20;11.10;99.90
2873;DHT22;1444;49.166;7.312;2024-01-25T12:55:49;11.10;99.90
2873;DHT22;1444;49.166;7.312;2024-01-25T12:58:16;11.10;99.90
2873;DHT22;1444;49.166;7.312;2024-01-25T13:00:43;11.20;99.90
2873;DHT22;1444;49.166;7.312;2024-01-25T13:03:11;11.20;99.90
2873;DHT22;1444;49.166;7.312;2024-01-25T13:05:38;11.20;99.90
2873;DHT22;1444;49.166;7.312;2024-01-25T13:08:06;11.20;99.90
2873;DHT22;1444;49.166;7.312;2024-01-25T13:10:33;11.20;99.90
2873;DHT22;1444;49.166;7.312;2024-01-25T13:13:01;11.20;99.90
2873;DHT22;1444;49.166;7.312;2024-01-25T13:15:29;11.00;99.90
2873;DHT22;1444;49.166;7.312;2024-01-25T13:17:57;10.90;99.90
2873;DHT22;1444;49.166;7.312;2024-01-25T13:20:26;10.80;99.90
2873;DHT22;1444;49.166;7.312;2024-01-25T13:22:53;10.80;99.90
2873;DHT22;1444;49.166;7.312;2024-01-25T13:25:20;10.70;99.90
2873;DHT22;1444;49.166;7.312;2024-01-25T13:27:47;10.70;99.90
2873;DHT22;1444;49.166;7.312;2024-01-25T13:30:18;10.70;99.90
2873;DHT22;1444;49.166;7.312;2024-01-25T13:32:45;10.70;99.90
2873;DHT22;1444;49.166;7.312;2024-01-25T13:37:39;10.80;99.90
2873;DHT22;1444;49.166;7.312;2024-01-25T13:40:08;10.80;99.90
2873;DHT22;1444;49.166;7.312;2024-01-25T13:42:35;10.70;99.90
2873;DHT22;1444;49.166;7.312;2024-01-25T13:45:03;10.70;99.90
2873;DHT22;1444;49.166;7.312;2024-01-25T13:47:32;10.70;99.90
2873;DHT22;1444;49.166;7.312;2024-01-25T13:49:58;10.70;99.90
2873;DHT22;1444;49.166;7.312;2024-01-25T13:52:25;10.70;99.90
2873;DHT22;1444;49.166;7.312;2024-01-25T13:54:52;10.70;99.90
2873;DHT22;1444;49.166;7.312;2024-01-25T13:57:20;10.70;99.90
2873;DHT22;1444;49.166;7.312;2024-01-25T14:02:16;10.60;99.90
2873;DHT22;1444;49.166;7.312;2024-01-25T14:04:44;10.70;99.90
2873;DHT22;1444;49.166;7.312;2024-01-25T14:07:13;10.60;99.90
2873;DHT22;1444;49.166;7.312;2024-01-25T14:09:40;10.60;99.90
2873;DHT22;1444;49.166;7.312;2024-01-25T14:12:08;10.60;99.90
2873;DHT22;1444;49.166;7.312;2024-01-25T14:14:36;10.70;99.90
2873;DHT22;1444;49.166;7.312;2024-01-25T14:17:03;10.70;99.90
2873;DHT22;1444;49.166;7.312;2024-01-25T14:19:30;10.60;99.90
2873;DHT22;1444;49.166;7.312;2024-01-25T14:21:59;10.60;99.90
2873;DHT22;1444;49.166;7.312;2024-01-25T14:24:26;10.70;99.90
2873;DHT22;1444;49.166;7.312;2024-01-25T14:26:52;10.60;99.90
2873;DHT22;1444;49.166;7.312;2024-01-25T14:29:19;10.50;99.90
2873;DHT22;1444;49.166;7.312;2024-01-25T14:31:46;10.50;99.90
2873;DHT22;1444;49.166;7.312;2024-01-25T14:34:13;10.50;99.90
2873;DHT22;1444;49.166;7.312;2024-01-25T14:36:40;10.40;99.90
2873;DHT22;1444;49.166;7.312;2024-01-25T14:39:08;10.50;99.90
2873;DHT22;1444;49.166;7.312;2024-01-25T14:41:35;10.60;99.90
2873;DHT22;1444;49.166;7.312;2024-01-25T14:44:02;10.60;99.90
2873;DHT22;1444;49.166;7.312;2024-01-25T14:46:30;10.50;99.90
2873;DHT22;1444;49.166;7.312;2024-01-25T14:48:56;10.60;99.90
2873;DHT22;1444;49.166;7.312;2024-01-25T14:51:25;10.50;99.90
2873;DHT22;1444;49.166;7.312;2024-01-25T14:53:51;10.60;99.90
2873;DHT22;1444;49.166;7.312;2024-01-25T14:56:20;10.50;99.90
2873;DHT22;1444;49.166;7.312;2024-01-25T14:58:47;10.50;99.90
2873;DHT22;1444;49.166;7.312;2024-01-25T15:01:14;10.50;99.90
2873;DHT22;1444;49.166;7.312;2024-01-25T15:06:11;10.70;99.90
2873;DHT22;1444;49.166;7.312;2024-01-25T15:08:37;10.70;99.90
2873;DHT22;1444;49.166;7.312;2024-01-25T15:11:05;10.80;99.90
2873;DHT22;1444;49.166;7.312;2024-01-25T15:13:34;10.70;99.90
2873;DHT22;1444;49.166;7.312;2024-01-25T15:16:01;10.70;99.90
2873;DHT22;1444;49.166;7.312;2024-01-25T15:18:28;10.70;99.90
2873;DHT22;1444;49.166;7.312;2024-01-25T15:20:56;10.80;99.90
2873;DHT22;1444;49.166;7.312;2024-01-25T15:23:23;10.80;99.90
2873;DHT22;1444;49.166;7.312;2024-01-25T15:25:50;10.70;99.90
2873;DHT22;1444;49.166;7.312;2024-01-25T15:28:16;10.70;99.90
2873;DHT22;1444;49.166;7.312;2024-01-25T15:30:45;10.70;99.90
2873;DHT22;1444;49.166;7.312;2024-01-25T15:33:12;10.70;99.90
2873;DHT22;1444;49.166;7.312;2024-01-25T15:35:38;10.70;99.90
2873;DHT22;1444;49.166;7.312;2024-01-25T15:38:05;10.70;99.90
2873;DHT22;1444;49.166;7.312;2024-01-25T15:40:33;10.70;99.90
2873;DHT22;1444;49.166;7.312;2024-01-25T15:43:00;10.70;99.90
2873;DHT22;1444;49.166;7.312;2024-01-25T15:45:27;10.70;99.90
2873;DHT22;1444;49.166;7.312;2024-01-25T15:47:56;10.70;99.90
2873;DHT22;1444;49.166;7.312;2024-01-25T15:50:22;10.70;99.90
2873;DHT22;1444;49.166;7.312;2024-01-25T15:52:49;10.70;99.90
2873;DHT22;1444;49.166;7.312;2024-01-25T15:55:16;10.80;99.90
2873;DHT22;1444;49.166;7.312;2024-01-25T15:57:43;10.80;99.90
2873;DHT22;1444;49.166;7.312;2024-01-25T16:00:11;10.70;99.90
2873;DHT22;1444;49.166;7.312;2024-01-25T16:02:38;10.60;99.90
2873;DHT22;1444;49.166;7.312;2024-01-25T16:05:07;10.60;99.90
2873;DHT22;1444;49.166;7.312;2024-01-25T16:07:34;10.70;99.90
2873;DHT22;1444;49.166;7.312;2024-01-25T16:10:01;10.70;99.90
2873;DHT22;1444;49.166;7.312;2024-01-25T16:14:56;10.70;99.90
2873;DHT22;1444;49.166;7.312;2024-01-25T16:17:24;10.70;99.90
2873;DHT22;1444;49.166;7.312;2024-01-25T16:19:51;10.60;99.90
2873;DHT22;1444;49.166;7.312;2024-01-25T16:22:19;10.60;99.90
2873;DHT22;1444;49.166;7.312;2024-01-25T16:24:46;10.60;99.90
2873;DHT22;1444;49.166;7.312;2024-01-25T16:27:13;10.50;99.90
2873;DHT22;1444;49.166;7.312;2024-01-25T16:29:40;10.60;99.90
2873;DHT22;1444;49.166;7.312;2024-01-25T16:32:07;10.60;99.90
2873;DHT22;1444;49.166;7.312;2024-01-25T16:34:34;10.60;99.90
2873;DHT22;1444;49.166;7.312;2024-01-25T16:37:01;10.50;99.90
2873;DHT22;1444;49.166;7.312;2024-01-25T16:39:30;10.60;99.90
2873;DHT22;1444;49.166;7.312;2024-01-25T16:41:57;10.60;99.90
2873;DHT22;1444;49.166;7.312;2024-01-25T16:44:23;10.60;99.90
2873;DHT22;1444;49.166;7.312;2024-01-25T16:46:50;10.60;99.90
2873;DHT22;1444;49.166;7.312;2024-01-25T16:49:17;10.60;99.90